Terminal Aerodrome Forecast
Issued by NWS

Home | Current Version | Previous Version | Graphics & Text | Print | Product List | Glossary Off
Versions: 1 2 3 4 5 6 7 8 9 10 11 12 13 14 15 16 17 18

000
FTUS42 KMHX 241700
TAFISO
TAF
KISO 241729Z 2418/2518 VRB05KT P6SM VCTS BKN050CB
      TEMPO 2418/2419 2SM TSRA BKN015 BKN025CB
     FM250200 33005KT P6SM SCT030 BKN100
     FM250600 00000KT 4SM BR BKN100
     FM251300 04005KT P6SM BKN100
      AMD LTD TO CLD VIS AND WIND=

USA.gov is the U.S. government's official web portal to all federal, state and local government web resources and services.